Aérodrome :
LOGIN :

S'inscrire | Disclaimer

   EN    FR    IT 

 










Légende :    VFR   VFR Marginal   IFR   IFR Intensif   IFR Très Intensif
Visi : 
Plafond : 
>= 8 km
>= 3000ft
5 à 8 km
1000 à 3000 ft
1500m à 5 km
500 à 1000 ft
800 à 1500m
200 à 500 ft
< 800m
< 200 ft
Symboles :   Orages  Brouillard  Fortes neiges  Fortes précipitations  Vent > 20 kt
SIGMETs :   Divers  Orages  Givrage  Turbulence  Onde Orograph.  Cendres Volcan.







- Altitude de l'aérodrome : 170 ft
- Code IATA : KRP


EKKA - Karup

DERNIER METAR :
  • 121220Z AUTO 08006KT 9999NDV OVC020/// 04/01 Q1030 NOSIG

METARs EXPIRÉS :
  • 121150Z AUTO 06005KT 020V090 9999NDV OVC021/// 04/01 Q1030 NOSIG
  • 121120Z AUTO 05004KT 9999NDV OVC019/// 04/01 Q1030 NOSIG
  • 121050Z AUTO 05005KT 010V070 9999NDV OVC021/// 04/00 Q1030 NOSIG
  • 121020Z AUTO 07005KT 9999NDV OVC020/// 04/00 Q1030 NOSIG
  • 120950Z AUTO 07005KT 9999NDV OVC020/// 03/M00 Q1030 NOSIG

TAF TAF EKKA
Valide du 12 à 12h jusqu'au 13 à 12h UTC


121129Z 1212/1312 06007KT 9999 BKN020
Pas de NOTAMs connus pour ce terrain.



MET'MAP, la Météo Aéronautique d'un coup d'oeil ! - Copyright ORBIFLY Décembre 2007 - Disclaimer

ORBIFLY MET'MAP TEAM :

Programmation & Développement : Alexandra Zaïnal
Conception & Développement : Baudouin d'Aumeries
Co-Programmation & Développement : Marc-Olivier Méhu
Soutien technique & logistique : Manuel Goepfert

Contact : metmap@orbifly.com




SOURCES & CREDITS :

   NOAA